sensor_id;sensor_type;location;lat;lon;timestamp;P1;durP1;ratioP1;P2;durP2;ratioP2
68858;SDS011;55864;49.238;8.092;2022-10-16T00:01:18;6.53;;;1.40;;
68858;SDS011;55864;49.238;8.092;2022-10-16T00:03:20;4.10;;;1.10;;
68858;SDS011;55864;49.238;8.092;2022-10-16T00:05:20;3.58;;;1.10;;
68858;SDS011;55864;49.238;8.092;2022-10-16T00:07:21;3.08;;;1.20;;
68858;SDS011;55864;49.238;8.092;2022-10-16T00:09:21;4.60;;;1.02;;
68858;SDS011;55864;49.238;8.092;2022-10-16T00:11:22;3.80;;;1.10;;
68858;SDS011;55864;49.238;8.092;2022-10-16T00:13:26;3.58;;;1.17;;
68858;SDS011;55864;49.238;8.092;2022-10-16T00:15:27;3.60;;;1.08;;
68858;SDS011;55864;49.238;8.092;2022-10-16T00:17:27;2.42;;;1.00;;
68858;SDS011;55864;49.238;8.092;2022-10-16T00:19:29;7.22;;;1.30;;
68858;SDS011;55864;49.238;8.092;2022-10-16T00:21:30;4.22;;;1.20;;
68858;SDS011;55864;49.238;8.092;2022-10-16T00:23:31;6.25;;;1.30;;
68858;SDS011;55864;49.238;8.092;2022-10-16T00:25:32;2.92;;;1.20;;
68858;SDS011;55864;49.238;8.092;2022-10-16T00:27:32;5.93;;;1.25;;
68858;SDS011;55864;49.238;8.092;2022-10-16T00:29:34;4.25;;;1.27;;
68858;SDS011;55864;49.238;8.092;2022-10-16T00:31:35;3.70;;;1.20;;
68858;SDS011;55864;49.238;8.092;2022-10-16T00:33:36;4.82;;;1.20;;
68858;SDS011;55864;49.238;8.092;2022-10-16T00:35:38;5.18;;;1.25;;
68858;SDS011;55864;49.238;8.092;2022-10-16T00:37:38;5.43;;;1.20;;
68858;SDS011;55864;49.238;8.092;2022-10-16T00:39:39;4.28;;;1.30;;
68858;SDS011;55864;49.238;8.092;2022-10-16T00:41:39;3.45;;;1.20;;
68858;SDS011;55864;49.238;8.092;2022-10-16T00:43:41;4.00;;;1.48;;
68858;SDS011;55864;49.238;8.092;2022-10-16T00:45:44;3.45;;;1.40;;
68858;SDS011;55864;49.238;8.092;2022-10-16T00:47:45;5.60;;;1.85;;
68858;SDS011;55864;49.238;8.092;2022-10-16T00:49:47;6.28;;;1.30;;
68858;SDS011;55864;49.238;8.092;2022-10-16T00:53:52;3.95;;;1.50;;
68858;SDS011;55864;49.238;8.092;2022-10-16T00:55:53;4.57;;;1.52;;
68858;SDS011;55864;49.238;8.092;2022-10-16T00:57:53;4.70;;;1.27;;
68858;SDS011;55864;49.238;8.092;2022-10-16T00:59:54;3.03;;;1.20;;
68858;SDS011;55864;49.238;8.092;2022-10-16T01:01:56;3.20;;;1.40;;
68858;SDS011;55864;49.238;8.092;2022-10-16T01:03:58;3.83;;;1.30;;
68858;SDS011;55864;49.238;8.092;2022-10-16T01:06:05;5.05;;;1.30;;
68858;SDS011;55864;49.238;8.092;2022-10-16T01:08:21;3.55;;;1.48;;
68858;SDS011;55864;49.238;8.092;2022-10-16T01:10:30;5.18;;;1.40;;
68858;SDS011;55864;49.238;8.092;2022-10-16T01:12:39;3.55;;;1.20;;
68858;SDS011;55864;49.238;8.092;2022-10-16T01:14:44;4.53;;;1.45;;
68858;SDS011;55864;49.238;8.092;2022-10-16T01:16:49;3.67;;;1.20;;
68858;SDS011;55864;49.238;8.092;2022-10-16T01:18:58;4.07;;;1.17;;
68858;SDS011;55864;49.238;8.092;2022-10-16T01:21:08;4.40;;;1.30;;
68858;SDS011;55864;49.238;8.092;2022-10-16T01:23:16;5.43;;;1.33;;
68858;SDS011;55864;49.238;8.092;2022-10-16T01:25:30;4.82;;;1.17;;
68858;SDS011;55864;49.238;8.092;2022-10-16T01:27:41;2.30;;;1.10;;
68858;SDS011;55864;49.238;8.092;2022-10-16T01:29:48;3.05;;;1.20;;
68858;SDS011;55864;49.238;8.092;2022-10-16T01:31:53;8.75;;;1.42;;
68858;SDS011;55864;49.238;8.092;2022-10-16T01:34:00;4.80;;;1.38;;
68858;SDS011;55864;49.238;8.092;2022-10-16T01:36:05;4.57;;;1.40;;
68858;SDS011;55864;49.238;8.092;2022-10-16T01:38:11;4.13;;;1.38;;
68858;SDS011;55864;49.238;8.092;2022-10-16T01:40:16;7.35;;;1.63;;
68858;SDS011;55864;49.238;8.092;2022-10-16T01:42:34;8.07;;;1.67;;
68858;SDS011;55864;49.238;8.092;2022-10-16T01:44:38;5.85;;;1.30;;
68858;SDS011;55864;49.238;8.092;2022-10-16T01:46:43;7.57;;;1.40;;
68858;SDS011;55864;49.238;8.092;2022-10-16T01:48:46;5.35;;;1.25;;
68858;SDS011;55864;49.238;8.092;2022-10-16T01:50:49;3.40;;;1.40;;
68858;SDS011;55864;49.238;8.092;2022-10-16T01:52:54;4.55;;;1.35;;
68858;SDS011;55864;49.238;8.092;2022-10-16T01:54:57;3.67;;;1.40;;
68858;SDS011;55864;49.238;8.092;2022-10-16T01:57:02;4.22;;;1.27;;
68858;SDS011;55864;49.238;8.092;2022-10-16T01:59:11;4.65;;;1.40;;
68858;SDS011;55864;49.238;8.092;2022-10-16T02:03:17;2.63;;;1.25;;
68858;SDS011;55864;49.238;8.092;2022-10-16T02:05:20;5.93;;;1.30;;
68858;SDS011;55864;49.238;8.092;2022-10-16T02:07:25;4.65;;;1.50;;
68858;SDS011;55864;49.238;8.092;2022-10-16T02:09:26;4.70;;;1.35;;
68858;SDS011;55864;49.238;8.092;2022-10-16T02:11:28;4.13;;;1.30;;
68858;SDS011;55864;49.238;8.092;2022-10-16T02:13:30;4.47;;;1.40;;
68858;SDS011;55864;49.238;8.092;2022-10-16T02:15:34;4.60;;;1.40;;
68858;SDS011;55864;49.238;8.092;2022-10-16T02:17:36;5.32;;;1.40;;
68858;SDS011;55864;49.238;8.092;2022-10-16T02:19:37;4.60;;;1.50;;
68858;SDS011;55864;49.238;8.092;2022-10-16T02:21:39;4.35;;;1.40;;
68858;SDS011;55864;49.238;8.092;2022-10-16T02:23:45;4.40;;;1.40;;
68858;SDS011;55864;49.238;8.092;2022-10-16T02:25:50;5.72;;;1.42;;
68858;SDS011;55864;49.238;8.092;2022-10-16T02:27:52;3.58;;;1.42;;
68858;SDS011;55864;49.238;8.092;2022-10-16T02:29:57;5.25;;;1.50;;
68858;SDS011;55864;49.238;8.092;2022-10-16T02:32:01;4.60;;;1.40;;
68858;SDS011;55864;49.238;8.092;2022-10-16T02:34:06;3.28;;;1.33;;
68858;SDS011;55864;49.238;8.092;2022-10-16T02:36:08;5.03;;;1.45;;
68858;SDS011;55864;49.238;8.092;2022-10-16T02:38:09;5.03;;;1.70;;
68858;SDS011;55864;49.238;8.092;2022-10-16T02:40:11;5.40;;;1.60;;
68858;SDS011;55864;49.238;8.092;2022-10-16T02:42:12;3.42;;;1.40;;
68858;SDS011;55864;49.238;8.092;2022-10-16T02:44:13;4.18;;;1.30;;
68858;SDS011;55864;49.238;8.092;2022-10-16T02:46:14;5.93;;;1.50;;
68858;SDS011;55864;49.238;8.092;2022-10-16T02:48:14;3.50;;;1.40;;
68858;SDS011;55864;49.238;8.092;2022-10-16T02:50:16;4.40;;;1.50;;
68858;SDS011;55864;49.238;8.092;2022-10-16T02:52:16;7.00;;;1.75;;
68858;SDS011;55864;49.238;8.092;2022-10-16T02:54:17;4.43;;;1.42;;
68858;SDS011;55864;49.238;8.092;2022-10-16T02:56:17;4.72;;;1.50;;
68858;SDS011;55864;49.238;8.092;2022-10-16T02:58:18;4.28;;;1.40;;
68858;SDS011;55864;49.238;8.092;2022-10-16T03:00:19;6.07;;;1.40;;
68858;SDS011;55864;49.238;8.092;2022-10-16T03:02:20;5.85;;;1.50;;
68858;SDS011;55864;49.238;8.092;2022-10-16T03:04:21;7.00;;;1.40;;
68858;SDS011;55864;49.238;8.092;2022-10-16T03:06:23;3.67;;;1.40;;
68858;SDS011;55864;49.238;8.092;2022-10-16T03:08:23;3.80;;;1.35;;
68858;SDS011;55864;49.238;8.092;2022-10-16T03:10:24;4.45;;;1.52;;
68858;SDS011;55864;49.238;8.092;2022-10-16T03:12:24;4.95;;;1.33;;
68858;SDS011;55864;49.238;8.092;2022-10-16T03:14:25;3.17;;;1.30;;
68858;SDS011;55864;49.238;8.092;2022-10-16T03:16:25;2.67;;;1.20;;
68858;SDS011;55864;49.238;8.092;2022-10-16T03:18:26;5.55;;;1.30;;
68858;SDS011;55864;49.238;8.092;2022-10-16T03:20:26;4.15;;;1.48;;
68858;SDS011;55864;49.238;8.092;2022-10-16T03:22:28;3.42;;;1.30;;
68858;SDS011;55864;49.238;8.092;2022-10-16T03:24:28;5.07;;;1.60;;
68858;SDS011;55864;49.238;8.092;2022-10-16T03:26:29;5.28;;;1.60;;
68858;SDS011;55864;49.238;8.092;2022-10-16T03:28:29;8.50;;;1.70;;
68858;SDS011;55864;49.238;8.092;2022-10-16T03:30:30;5.03;;;1.70;;
68858;SDS011;55864;49.238;8.092;2022-10-16T03:32:31;5.25;;;1.42;;
68858;SDS011;55864;49.238;8.092;2022-10-16T03:34:31;4.72;;;1.40;;
68858;SDS011;55864;49.238;8.092;2022-10-16T03:36:32;4.78;;;1.35;;
68858;SDS011;55864;49.238;8.092;2022-10-16T03:38:34;5.25;;;1.50;;
68858;SDS011;55864;49.238;8.092;2022-10-16T03:40:35;4.07;;;1.65;;
68858;SDS011;55864;49.238;8.092;2022-10-16T03:42:35;6.43;;;1.60;;
68858;SDS011;55864;49.238;8.092;2022-10-16T03:44:36;6.13;;;1.88;;
68858;SDS011;55864;49.238;8.092;2022-10-16T03:46:36;3.67;;;1.42;;
68858;SDS011;55864;49.238;8.092;2022-10-16T03:48:37;3.28;;;1.52;;
68858;SDS011;55864;49.238;8.092;2022-10-16T03:50:37;3.53;;;1.50;;
68858;SDS011;55864;49.238;8.092;2022-10-16T03:52:38;3.33;;;1.40;;
68858;SDS011;55864;49.238;8.092;2022-10-16T03:54:40;7.18;;;1.55;;
68858;SDS011;55864;49.238;8.092;2022-10-16T03:56:40;3.60;;;1.40;;
68858;SDS011;55864;49.238;8.092;2022-10-16T03:58:41;4.63;;;1.50;;
68858;SDS011;55864;49.238;8.092;2022-10-16T04:00:41;7.68;;;1.60;;
68858;SDS011;55864;49.238;8.092;2022-10-16T04:02:42;5.38;;;1.58;;
68858;SDS011;55864;49.238;8.092;2022-10-16T04:04:43;4.75;;;1.50;;
68858;SDS011;55864;49.238;8.092;2022-10-16T04:06:43;4.68;;;1.40;;
68858;SDS011;55864;49.238;8.092;2022-10-16T04:08:44;3.50;;;1.50;;
68858;SDS011;55864;49.238;8.092;2022-10-16T04:10:46;3.75;;;1.60;;
68858;SDS011;55864;49.238;8.092;2022-10-16T04:12:47;6.47;;;2.08;;
68858;SDS011;55864;49.238;8.092;2022-10-16T04:14:48;6.88;;;2.35;;
68858;SDS011;55864;49.238;8.092;2022-10-16T04:16:48;5.20;;;2.85;;
68858;SDS011;55864;49.238;8.092;2022-10-16T04:18:48;5.50;;;2.70;;
68858;SDS011;55864;49.238;8.092;2022-10-16T04:20:49;5.78;;;2.00;;
68858;SDS011;55864;49.238;8.092;2022-10-16T04:22:50;5.25;;;1.90;;
68858;SDS011;55864;49.238;8.092;2022-10-16T04:24:50;7.95;;;2.08;;
68858;SDS011;55864;49.238;8.092;2022-10-16T04:26:52;4.53;;;1.75;;
68858;SDS011;55864;49.238;8.092;2022-10-16T04:28:52;10.00;;;1.80;;
68858;SDS011;55864;49.238;8.092;2022-10-16T04:30:53;5.50;;;1.67;;
68858;SDS011;55864;49.238;8.092;2022-10-16T04:32:53;6.72;;;1.60;;
68858;SDS011;55864;49.238;8.092;2022-10-16T04:34:54;6.57;;;1.70;;
68858;SDS011;55864;49.238;8.092;2022-10-16T04:36:54;4.47;;;1.58;;
68858;SDS011;55864;49.238;8.092;2022-10-16T04:38:55;4.22;;;1.58;;
68858;SDS011;55864;49.238;8.092;2022-10-16T04:40:55;4.53;;;1.50;;
68858;SDS011;55864;49.238;8.092;2022-10-16T04:42:57;6.30;;;2.17;;
68858;SDS011;55864;49.238;8.092;2022-10-16T04:44:58;6.47;;;2.20;;
68858;SDS011;55864;49.238;8.092;2022-10-16T04:46:58;41.22;;;13.27;;
68858;SDS011;55864;49.238;8.092;2022-10-16T04:48:59;57.58;;;18.00;;
68858;SDS011;55864;49.238;8.092;2022-10-16T04:50:59;148.45;;;49.65;;
68858;SDS011;55864;49.238;8.092;2022-10-16T04:53:00;166.90;;;67.97;;
68858;SDS011;55864;49.238;8.092;2022-10-16T04:55:00;171.15;;;77.20;;
68858;SDS011;55864;49.238;8.092;2022-10-16T04:57:01;127.53;;;55.92;;
68858;SDS011;55864;49.238;8.092;2022-10-16T04:59:03;54.13;;;23.52;;
68858;SDS011;55864;49.238;8.092;2022-10-16T05:01:04;15.75;;;7.38;;
68858;SDS011;55864;49.238;8.092;2022-10-16T05:03:04;8.07;;;3.63;;
68858;SDS011;55864;49.238;8.092;2022-10-16T05:05:05;10.68;;;3.83;;
68858;SDS011;55864;49.238;8.092;2022-10-16T05:07:06;10.07;;;3.63;;
68858;SDS011;55864;49.238;8.092;2022-10-16T05:09:07;11.63;;;4.45;;
68858;SDS011;55864;49.238;8.092;2022-10-16T05:11:08;7.05;;;2.53;;
68858;SDS011;55864;49.238;8.092;2022-10-16T05:13:08;24.88;;;9.95;;
68858;SDS011;55864;49.238;8.092;2022-10-16T05:15:11;8.30;;;3.20;;
68858;SDS011;55864;49.238;8.092;2022-10-16T05:17:12;6.32;;;1.75;;
68858;SDS011;55864;49.238;8.092;2022-10-16T05:19:12;8.88;;;2.95;;
68858;SDS011;55864;49.238;8.092;2022-10-16T05:21:13;10.15;;;3.30;;
68858;SDS011;55864;49.238;8.092;2022-10-16T05:23:13;11.93;;;3.95;;
68858;SDS011;55864;49.238;8.092;2022-10-16T05:25:14;8.68;;;3.65;;
68858;SDS011;55864;49.238;8.092;2022-10-16T05:27:14;31.75;;;14.15;;
68858;SDS011;55864;49.238;8.092;2022-10-16T05:29:15;47.83;;;19.85;;
68858;SDS011;55864;49.238;8.092;2022-10-16T05:31:17;11.75;;;3.92;;
68858;SDS011;55864;49.238;8.092;2022-10-16T05:33:19;6.95;;;2.67;;
68858;SDS011;55864;49.238;8.092;2022-10-16T05:35:20;8.38;;;2.35;;
68858;SDS011;55864;49.238;8.092;2022-10-16T05:37:20;7.07;;;1.67;;
68858;SDS011;55864;49.238;8.092;2022-10-16T05:39:21;9.60;;;2.00;;
68858;SDS011;55864;49.238;8.092;2022-10-16T05:41:21;6.60;;;1.98;;
68858;SDS011;55864;49.238;8.092;2022-10-16T05:43:22;4.90;;;1.90;;
68858;SDS011;55864;49.238;8.092;2022-10-16T05:45:22;10.07;;;4.30;;
68858;SDS011;55864;49.238;8.092;2022-10-16T05:47:24;8.57;;;3.30;;
68858;SDS011;55864;49.238;8.092;2022-10-16T05:49:25;9.48;;;3.10;;
68858;SDS011;55864;49.238;8.092;2022-10-16T05:51:25;16.80;;;7.18;;
68858;SDS011;55864;49.238;8.092;2022-10-16T05:53:26;18.33;;;9.48;;
68858;SDS011;55864;49.238;8.092;2022-10-16T05:55:28;7.95;;;4.00;;
68858;SDS011;55864;49.238;8.092;2022-10-16T05:57:28;5.93;;;2.78;;
68858;SDS011;55864;49.238;8.092;2022-10-16T05:59:29;6.40;;;2.40;;
68858;SDS011;55864;49.238;8.092;2022-10-16T06:01:29;5.50;;;2.00;;
68858;SDS011;55864;49.238;8.092;2022-10-16T06:03:31;6.35;;;2.17;;
68858;SDS011;55864;49.238;8.092;2022-10-16T06:05:32;4.80;;;2.13;;
68858;SDS011;55864;49.238;8.092;2022-10-16T06:07:33;6.45;;;1.98;;
68858;SDS011;55864;49.238;8.092;2022-10-16T06:09:35;7.43;;;2.45;;
68858;SDS011;55864;49.238;8.092;2022-10-16T06:11:35;5.10;;;1.75;;
68858;SDS011;55864;49.238;8.092;2022-10-16T06:13:36;4.78;;;1.70;;
68858;SDS011;55864;49.238;8.092;2022-10-16T06:15:37;5.25;;;1.95;;
68858;SDS011;55864;49.238;8.092;2022-10-16T06:17:38;6.10;;;1.80;;
68858;SDS011;55864;49.238;8.092;2022-10-16T06:19:40;5.00;;;1.80;;
68858;SDS011;55864;49.238;8.092;2022-10-16T06:21:40;4.78;;;1.77;;
68858;SDS011;55864;49.238;8.092;2022-10-16T06:23:41;5.80;;;1.92;;
68858;SDS011;55864;49.238;8.092;2022-10-16T06:25:41;7.95;;;1.92;;
68858;SDS011;55864;49.238;8.092;2022-10-16T06:27:42;5.00;;;1.83;;
68858;SDS011;55864;49.238;8.092;2022-10-16T06:29:42;5.18;;;1.77;;
68858;SDS011;55864;49.238;8.092;2022-10-16T06:31:43;4.88;;;1.80;;
68858;SDS011;55864;49.238;8.092;2022-10-16T06:33:43;8.82;;;2.08;;
68858;SDS011;55864;49.238;8.092;2022-10-16T06:35:45;4.35;;;1.80;;
68858;SDS011;55864;49.238;8.092;2022-10-16T06:37:46;7.40;;;2.05;;
68858;SDS011;55864;49.238;8.092;2022-10-16T06:39:46;4.97;;;2.00;;
68858;SDS011;55864;49.238;8.092;2022-10-16T06:41:47;4.47;;;1.70;;
68858;SDS011;55864;49.238;8.092;2022-10-16T06:43:49;6.75;;;2.30;;
68858;SDS011;55864;49.238;8.092;2022-10-16T06:45:50;6.40;;;1.90;;
68858;SDS011;55864;49.238;8.092;2022-10-16T06:47:51;5.07;;;1.73;;
68858;SDS011;55864;49.238;8.092;2022-10-16T06:49:52;5.32;;;1.92;;
68858;SDS011;55864;49.238;8.092;2022-10-16T06:51:54;5.03;;;1.90;;
68858;SDS011;55864;49.238;8.092;2022-10-16T06:53:55;6.90;;;2.35;;
68858;SDS011;55864;49.238;8.092;2022-10-16T06:55:55;5.60;;;2.22;;
68858;SDS011;55864;49.238;8.092;2022-10-16T06:57:56;6.65;;;2.10;;
68858;SDS011;55864;49.238;8.092;2022-10-16T06:59:57;5.95;;;2.20;;
68858;SDS011;55864;49.238;8.092;2022-10-16T07:01:57;6.15;;;2.20;;
68858;SDS011;55864;49.238;8.092;2022-10-16T07:03:58;6.65;;;2.17;;
68858;SDS011;55864;49.238;8.092;2022-10-16T07:06:01;6.15;;;2.28;;
68858;SDS011;55864;49.238;8.092;2022-10-16T07:08:03;6.85;;;2.50;;
68858;SDS011;55864;49.238;8.092;2022-10-16T07:10:04;6.53;;;2.60;;
68858;SDS011;55864;49.238;8.092;2022-10-16T07:12:05;6.50;;;2.90;;
68858;SDS011;55864;49.238;8.092;2022-10-16T07:14:09;6.45;;;2.50;;
68858;SDS011;55864;49.238;8.092;2022-10-16T07:16:15;7.32;;;2.95;;
68858;SDS011;55864;49.238;8.092;2022-10-16T07:18:17;5.45;;;2.50;;
68858;SDS011;55864;49.238;8.092;2022-10-16T07:20:17;6.55;;;2.60;;
68858;SDS011;55864;49.238;8.092;2022-10-16T07:22:18;7.45;;;2.50;;
68858;SDS011;55864;49.238;8.092;2022-10-16T07:24:20;6.82;;;2.80;;
68858;SDS011;55864;49.238;8.092;2022-10-16T07:26:21;7.20;;;2.42;;
68858;SDS011;55864;49.238;8.092;2022-10-16T07:28:22;6.00;;;2.60;;
68858;SDS011;55864;49.238;8.092;2022-10-16T07:30:22;6.30;;;2.42;;
68858;SDS011;55864;49.238;8.092;2022-10-16T07:32:23;5.95;;;2.45;;
68858;SDS011;55864;49.238;8.092;2022-10-16T07:34:23;7.45;;;2.80;;
68858;SDS011;55864;49.238;8.092;2022-10-16T07:36:26;6.45;;;2.50;;
68858;SDS011;55864;49.238;8.092;2022-10-16T07:38:27;7.82;;;2.70;;
68858;SDS011;55864;49.238;8.092;2022-10-16T07:40:29;9.10;;;3.20;;
68858;SDS011;55864;49.238;8.092;2022-10-16T07:42:29;6.72;;;2.97;;
68858;SDS011;55864;49.238;8.092;2022-10-16T07:44:30;7.22;;;3.63;;
68858;SDS011;55864;49.238;8.092;2022-10-16T07:46:31;9.57;;;3.97;;
68858;SDS011;55864;49.238;8.092;2022-10-16T07:48:32;7.32;;;3.45;;
68858;SDS011;55864;49.238;8.092;2022-10-16T07:50:34;10.55;;;4.18;;
68858;SDS011;55864;49.238;8.092;2022-10-16T07:52:35;9.65;;;4.20;;
68858;SDS011;55864;49.238;8.092;2022-10-16T07:54:35;12.73;;;4.50;;
68858;SDS011;55864;49.238;8.092;2022-10-16T07:56:37;12.00;;;5.10;;
68858;SDS011;55864;49.238;8.092;2022-10-16T07:58:38;10.93;;;4.32;;
68858;SDS011;55864;49.238;8.092;2022-10-16T08:00:39;8.20;;;3.88;;
68858;SDS011;55864;49.238;8.092;2022-10-16T08:02:39;7.47;;;3.50;;
68858;SDS011;55864;49.238;8.092;2022-10-16T08:04:40;10.60;;;3.85;;
68858;SDS011;55864;49.238;8.092;2022-10-16T08:06:40;13.40;;;4.55;;
68858;SDS011;55864;49.238;8.092;2022-10-16T08:08:41;12.43;;;4.00;;
68858;SDS011;55864;49.238;8.092;2022-10-16T08:10:42;8.50;;;3.85;;
68858;SDS011;55864;49.238;8.092;2022-10-16T08:12:44;10.93;;;3.97;;
68858;SDS011;55864;49.238;8.092;2022-10-16T08:14:44;11.90;;;4.07;;
68858;SDS011;55864;49.238;8.092;2022-10-16T08:16:45;10.40;;;4.20;;
68858;SDS011;55864;49.238;8.092;2022-10-16T08:18:45;9.30;;;3.33;;
68858;SDS011;55864;49.238;8.092;2022-10-16T08:20:46;11.20;;;3.30;;
68858;SDS011;55864;49.238;8.092;2022-10-16T08:22:47;9.07;;;2.95;;
68858;SDS011;55864;49.238;8.092;2022-10-16T08:24:47;11.60;;;4.10;;
68858;SDS011;55864;49.238;8.092;2022-10-16T08:26:48;13.90;;;4.82;;
68858;SDS011;55864;49.238;8.092;2022-10-16T08:28:50;8.80;;;3.80;;
68858;SDS011;55864;49.238;8.092;2022-10-16T08:30:51;9.18;;;3.47;;
68858;SDS011;55864;49.238;8.092;2022-10-16T08:32:51;9.27;;;3.60;;
68858;SDS011;55864;49.238;8.092;2022-10-16T08:34:52;14.10;;;3.05;;
68858;SDS011;55864;49.238;8.092;2022-10-16T08:36:52;10.13;;;3.30;;
68858;SDS011;55864;49.238;8.092;2022-10-16T08:38:53;10.25;;;3.50;;
68858;SDS011;55864;49.238;8.092;2022-10-16T08:40:54;13.30;;;4.07;;
68858;SDS011;55864;49.238;8.092;2022-10-16T08:45:38;16.30;;;3.85;;
68858;SDS011;55864;49.238;8.092;2022-10-16T08:47:48;10.82;;;2.97;;
68858;SDS011;55864;49.238;8.092;2022-10-16T08:49:55;11.23;;;3.20;;
68858;SDS011;55864;49.238;8.092;2022-10-16T08:51:58;11.55;;;3.67;;
68858;SDS011;55864;49.238;8.092;2022-10-16T08:53:59;9.52;;;3.13;;
68858;SDS011;55864;49.238;8.092;2022-10-16T08:56:02;7.65;;;3.40;;
68858;SDS011;55864;49.238;8.092;2022-10-16T08:58:07;10.88;;;3.47;;
68858;SDS011;55864;49.238;8.092;2022-10-16T09:00:13;7.63;;;2.80;;
68858;SDS011;55864;49.238;8.092;2022-10-16T09:02:20;8.25;;;3.00;;
68858;SDS011;55864;49.238;8.092;2022-10-16T09:04:38;27.85;;;4.30;;
68858;SDS011;55864;49.238;8.092;2022-10-16T09:06:57;7.65;;;2.75;;
68858;SDS011;55864;49.238;8.092;2022-10-16T09:09:11;6.13;;;2.33;;
68858;SDS011;55864;49.238;8.092;2022-10-16T09:11:30;8.48;;;2.55;;
68858;SDS011;55864;49.238;8.092;2022-10-16T09:13:43;7.38;;;2.30;;
68858;SDS011;55864;49.238;8.092;2022-10-16T09:15:53;17.23;;;2.90;;
68858;SDS011;55864;49.238;8.092;2022-10-16T09:18:02;4.65;;;2.10;;
68858;SDS011;55864;49.238;8.092;2022-10-16T09:22:32;5.13;;;1.60;;
68858;SDS011;55864;49.238;8.092;2022-10-16T09:24:33;6.32;;;1.80;;
68858;SDS011;55864;49.238;8.092;2022-10-16T09:26:34;4.53;;;1.80;;
68858;SDS011;55864;49.238;8.092;2022-10-16T09:28:34;9.05;;;1.95;;
68858;SDS011;55864;49.238;8.092;2022-10-16T09:30:35;6.97;;;1.80;;
68858;SDS011;55864;49.238;8.092;2022-10-16T09:32:37;4.75;;;1.92;;
68858;SDS011;55864;49.238;8.092;2022-10-16T09:34:41;7.47;;;1.85;;
68858;SDS011;55864;49.238;8.092;2022-10-16T09:36:43;6.57;;;2.20;;
68858;SDS011;55864;49.238;8.092;2022-10-16T09:38:46;4.43;;;1.90;;
68858;SDS011;55864;49.238;8.092;2022-10-16T09:40:46;7.57;;;1.83;;
68858;SDS011;55864;49.238;8.092;2022-10-16T09:42:47;5.30;;;1.60;;
68858;SDS011;55864;49.238;8.092;2022-10-16T09:44:48;5.15;;;1.70;;
68858;SDS011;55864;49.238;8.092;2022-10-16T09:47:00;5.75;;;1.77;;
68858;SDS011;55864;49.238;8.092;2022-10-16T09:49:02;4.88;;;1.83;;
68858;SDS011;55864;49.238;8.092;2022-10-16T09:51:06;6.03;;;1.80;;
68858;SDS011;55864;49.238;8.092;2022-10-16T09:53:24;6.07;;;1.90;;
68858;SDS011;55864;49.238;8.092;2022-10-16T09:55:47;5.88;;;1.95;;
68858;SDS011;55864;49.238;8.092;2022-10-16T09:57:49;5.72;;;1.83;;
68858;SDS011;55864;49.238;8.092;2022-10-16T09:59:50;5.78;;;2.10;;
68858;SDS011;55864;49.238;8.092;2022-10-16T10:01:52;5.22;;;1.90;;
68858;SDS011;55864;49.238;8.092;2022-10-16T10:03:55;6.45;;;1.80;;
68858;SDS011;55864;49.238;8.092;2022-10-16T10:05:57;6.70;;;2.20;;
68858;SDS011;55864;49.238;8.092;2022-10-16T10:07:59;4.00;;;1.90;;
68858;SDS011;55864;49.238;8.092;2022-10-16T10:10:03;5.68;;;1.92;;
68858;SDS011;55864;49.238;8.092;2022-10-16T10:12:05;5.88;;;2.20;;
68858;SDS011;55864;49.238;8.092;2022-10-16T10:14:21;5.07;;;2.00;;
68858;SDS011;55864;49.238;8.092;2022-10-16T10:16:33;7.13;;;2.28;;
68858;SDS011;55864;49.238;8.092;2022-10-16T10:18:34;5.47;;;2.20;;
68858;SDS011;55864;49.238;8.092;2022-10-16T10:20:35;6.72;;;2.50;;
68858;SDS011;55864;49.238;8.092;2022-10-16T10:22:40;6.00;;;2.50;;
68858;SDS011;55864;49.238;8.092;2022-10-16T10:24:43;5.65;;;1.92;;
68858;SDS011;55864;49.238;8.092;2022-10-16T10:26:48;6.88;;;2.20;;
68858;SDS011;55864;49.238;8.092;2022-10-16T10:28:55;7.30;;;2.28;;
68858;SDS011;55864;49.238;8.092;2022-10-16T10:31:06;6.03;;;2.10;;
68858;SDS011;55864;49.238;8.092;2022-10-16T10:33:17;6.78;;;2.00;;
68858;SDS011;55864;49.238;8.092;2022-10-16T10:35:25;5.50;;;2.20;;
68858;SDS011;55864;49.238;8.092;2022-10-16T10:37:37;8.95;;;2.17;;
68858;SDS011;55864;49.238;8.092;2022-10-16T10:39:51;5.40;;;1.88;;
68858;SDS011;55864;49.238;8.092;2022-10-16T10:42:07;7.60;;;2.00;;
68858;SDS011;55864;49.238;8.092;2022-10-16T10:44:16;5.70;;;2.05;;
68858;SDS011;55864;49.238;8.092;2022-10-16T10:46:27;6.65;;;2.20;;
68858;SDS011;55864;49.238;8.092;2022-10-16T10:51:19;6.03;;;1.88;;
68858;SDS011;55864;49.238;8.092;2022-10-16T10:53:31;7.47;;;2.00;;
68858;SDS011;55864;49.238;8.092;2022-10-16T10:55:43;5.03;;;2.08;;
68858;SDS011;55864;49.238;8.092;2022-10-16T10:57:54;4.30;;;1.90;;
68858;SDS011;55864;49.238;8.092;2022-10-16T11:00:10;6.32;;;1.75;;
68858;SDS011;55864;49.238;8.092;2022-10-16T11:02:22;5.88;;;2.10;;
68858;SDS011;55864;49.238;8.092;2022-10-16T11:07:20;6.68;;;1.90;;
68858;SDS011;55864;49.238;8.092;2022-10-16T11:09:25;5.43;;;1.92;;
68858;SDS011;55864;49.238;8.092;2022-10-16T11:11:34;6.65;;;2.08;;
68858;SDS011;55864;49.238;8.092;2022-10-16T11:13:38;5.15;;;2.00;;
68858;SDS011;55864;49.238;8.092;2022-10-16T11:15:43;9.82;;;3.33;;
68858;SDS011;55864;49.238;8.092;2022-10-16T11:17:49;9.13;;;3.10;;
68858;SDS011;55864;49.238;8.092;2022-10-16T11:19:53;8.27;;;2.58;;
68858;SDS011;55864;49.238;8.092;2022-10-16T11:21:59;6.85;;;2.67;;
68858;SDS011;55864;49.238;8.092;2022-10-16T11:24:05;6.78;;;1.88;;
68858;SDS011;55864;49.238;8.092;2022-10-16T11:26:16;6.22;;;2.15;;
68858;SDS011;55864;49.238;8.092;2022-10-16T11:28:23;4.57;;;2.00;;
68858;SDS011;55864;49.238;8.092;2022-10-16T11:30:28;6.85;;;2.08;;
68858;SDS011;55864;49.238;8.092;2022-10-16T11:32:32;7.32;;;2.40;;
68858;SDS011;55864;49.238;8.092;2022-10-16T11:34:43;5.63;;;2.20;;
68858;SDS011;55864;49.238;8.092;2022-10-16T11:36:50;4.82;;;1.77;;
68858;SDS011;55864;49.238;8.092;2022-10-16T11:38:58;5.28;;;2.22;;
68858;SDS011;55864;49.238;8.092;2022-10-16T11:41:03;10.48;;;2.40;;
68858;SDS011;55864;49.238;8.092;2022-10-16T11:43:17;5.93;;;2.35;;
68858;SDS011;55864;49.238;8.092;2022-10-16T11:45:27;5.95;;;2.00;;
68858;SDS011;55864;49.238;8.092;2022-10-16T11:47:33;8.50;;;2.63;;
68858;SDS011;55864;49.238;8.092;2022-10-16T11:49:36;6.78;;;2.10;;
68858;SDS011;55864;49.238;8.092;2022-10-16T11:51:40;6.35;;;2.13;;
68858;SDS011;55864;49.238;8.092;2022-10-16T11:53:45;6.13;;;2.30;;
68858;SDS011;55864;49.238;8.092;2022-10-16T11:55:51;6.10;;;2.33;;
68858;SDS011;55864;49.238;8.092;2022-10-16T11:57:52;6.60;;;2.40;;
68858;SDS011;55864;49.238;8.092;2022-10-16T11:59:59;6.43;;;2.30;;
68858;SDS011;55864;49.238;8.092;2022-10-16T12:02:36;5.03;;;2.10;;
68858;SDS011;55864;49.238;8.092;2022-10-16T12:04:45;5.38;;;2.50;;
68858;SDS011;55864;49.238;8.092;2022-10-16T12:06:51;7.72;;;2.30;;
68858;SDS011;55864;49.238;8.092;2022-10-16T12:08:55;5.80;;;2.28;;
68858;SDS011;55864;49.238;8.092;2022-10-16T12:11:06;7.22;;;2.35;;
68858;SDS011;55864;49.238;8.092;2022-10-16T12:15:34;7.38;;;2.47;;
68858;SDS011;55864;49.238;8.092;2022-10-16T12:17:35;6.32;;;2.22;;
68858;SDS011;55864;49.238;8.092;2022-10-16T12:19:37;11.13;;;2.33;;
68858;SDS011;55864;49.238;8.092;2022-10-16T12:21:37;5.00;;;2.00;;
68858;SDS011;55864;49.238;8.092;2022-10-16T12:23:38;5.93;;;2.00;;
68858;SDS011;55864;49.238;8.092;2022-10-16T12:25:53;8.13;;;2.40;;
68858;SDS011;55864;49.238;8.092;2022-10-16T12:27:55;6.70;;;2.33;;
68858;SDS011;55864;49.238;8.092;2022-10-16T12:30:01;8.68;;;2.55;;
68858;SDS011;55864;49.238;8.092;2022-10-16T12:32:05;5.30;;;2.30;;
68858;SDS011;55864;49.238;8.092;2022-10-16T12:34:22;7.90;;;2.83;;
68858;SDS011;55864;49.238;8.092;2022-10-16T12:36:28;5.57;;;2.10;;
68858;SDS011;55864;49.238;8.092;2022-10-16T12:38:32;5.80;;;2.28;;